sensor_id;sensor_type;location;lat;lon;timestamp;P1;durP1;ratioP1;P2;durP2;ratioP2
15655;SDS011;7928;43.614;1.456;2022-10-31T00:01:51;11.77;;;6.50;;
15655;SDS011;7928;43.614;1.456;2022-10-31T00:04:18;18.43;;;6.70;;
15655;SDS011;7928;43.614;1.456;2022-10-31T00:06:46;13.47;;;6.67;;
15655;SDS011;7928;43.614;1.456;2022-10-31T00:09:13;21.50;;;7.87;;
15655;SDS011;7928;43.614;1.456;2022-10-31T00:11:40;14.33;;;6.47;;
15655;SDS011;7928;43.614;1.456;2022-10-31T00:14:07;14.83;;;6.80;;
15655;SDS011;7928;43.614;1.456;2022-10-31T00:16:34;17.73;;;7.00;;
15655;SDS011;7928;43.614;1.456;2022-10-31T00:19:02;16.90;;;7.10;;
15655;SDS011;7928;43.614;1.456;2022-10-31T00:21:31;17.87;;;7.33;;
15655;SDS011;7928;43.614;1.456;2022-10-31T00:24:00;21.07;;;8.60;;
15655;SDS011;7928;43.614;1.456;2022-10-31T00:26:28;15.87;;;8.07;;
15655;SDS011;7928;43.614;1.456;2022-10-31T00:28:56;15.73;;;7.43;;
15655;SDS011;7928;43.614;1.456;2022-10-31T00:31:23;18.07;;;7.17;;
15655;SDS011;7928;43.614;1.456;2022-10-31T00:33:50;22.07;;;8.33;;
15655;SDS011;7928;43.614;1.456;2022-10-31T00:36:18;18.37;;;7.40;;
15655;SDS011;7928;43.614;1.456;2022-10-31T00:38:46;15.83;;;7.83;;
15655;SDS011;7928;43.614;1.456;2022-10-31T00:41:15;14.83;;;7.30;;
15655;SDS011;7928;43.614;1.456;2022-10-31T00:43:43;16.20;;;7.10;;
15655;SDS011;7928;43.614;1.456;2022-10-31T00:46:10;17.70;;;7.67;;
15655;SDS011;7928;43.614;1.456;2022-10-31T00:48:38;18.60;;;7.30;;
15655;SDS011;7928;43.614;1.456;2022-10-31T00:51:05;16.43;;;7.30;;
15655;SDS011;7928;43.614;1.456;2022-10-31T00:53:32;15.63;;;7.27;;
15655;SDS011;7928;43.614;1.456;2022-10-31T00:55:59;15.50;;;7.30;;
15655;SDS011;7928;43.614;1.456;2022-10-31T00:58:28;18.87;;;7.30;;
15655;SDS011;7928;43.614;1.456;2022-10-31T01:00:55;18.13;;;7.33;;
15655;SDS011;7928;43.614;1.456;2022-10-31T01:03:22;15.70;;;8.20;;
15655;SDS011;7928;43.614;1.456;2022-10-31T01:05:56;15.60;;;7.87;;
15655;SDS011;7928;43.614;1.456;2022-10-31T01:08:24;19.20;;;7.70;;
15655;SDS011;7928;43.614;1.456;2022-10-31T01:10:59;19.73;;;7.73;;
15655;SDS011;7928;43.614;1.456;2022-10-31T01:13:28;16.60;;;7.53;;
15655;SDS011;7928;43.614;1.456;2022-10-31T01:15:55;18.73;;;7.97;;
15655;SDS011;7928;43.614;1.456;2022-10-31T01:18:23;12.17;;;7.63;;
15655;SDS011;7928;43.614;1.456;2022-10-31T01:20:57;15.93;;;7.70;;
15655;SDS011;7928;43.614;1.456;2022-10-31T01:23:26;17.57;;;7.73;;
15655;SDS011;7928;43.614;1.456;2022-10-31T01:26:04;17.33;;;8.27;;
15655;SDS011;7928;43.614;1.456;2022-10-31T01:28:35;17.63;;;7.10;;
15655;SDS011;7928;43.614;1.456;2022-10-31T01:31:04;13.53;;;6.87;;
15655;SDS011;7928;43.614;1.456;2022-10-31T01:33:33;16.33;;;7.43;;
15655;SDS011;7928;43.614;1.456;2022-10-31T01:36:00;23.17;;;7.40;;
15655;SDS011;7928;43.614;1.456;2022-10-31T01:38:36;16.53;;;7.67;;
15655;SDS011;7928;43.614;1.456;2022-10-31T01:41:03;18.37;;;7.20;;
15655;SDS011;7928;43.614;1.456;2022-10-31T01:43:42;17.30;;;7.87;;
15655;SDS011;7928;43.614;1.456;2022-10-31T01:46:11;19.80;;;8.47;;
15655;SDS011;7928;43.614;1.456;2022-10-31T01:48:38;16.60;;;8.27;;
15655;SDS011;7928;43.614;1.456;2022-10-31T01:51:06;15.67;;;7.93;;
15655;SDS011;7928;43.614;1.456;2022-10-31T01:53:36;20.00;;;8.73;;
15655;SDS011;7928;43.614;1.456;2022-10-31T01:56:03;20.30;;;7.90;;
15655;SDS011;7928;43.614;1.456;2022-10-31T01:58:31;18.37;;;7.90;;
15655;SDS011;7928;43.614;1.456;2022-10-31T02:01:00;20.33;;;8.00;;
15655;SDS011;7928;43.614;1.456;2022-10-31T02:03:28;18.33;;;7.73;;
15655;SDS011;7928;43.614;1.456;2022-10-31T02:05:56;17.10;;;7.67;;
15655;SDS011;7928;43.614;1.456;2022-10-31T02:08:26;16.17;;;7.87;;
15655;SDS011;7928;43.614;1.456;2022-10-31T02:10:54;16.53;;;7.93;;
15655;SDS011;7928;43.614;1.456;2022-10-31T02:13:24;17.80;;;8.40;;
15655;SDS011;7928;43.614;1.456;2022-10-31T02:15:53;19.67;;;8.27;;
15655;SDS011;7928;43.614;1.456;2022-10-31T02:18:24;14.37;;;8.00;;
15655;SDS011;7928;43.614;1.456;2022-10-31T02:20:56;18.40;;;8.13;;
15655;SDS011;7928;43.614;1.456;2022-10-31T02:26:44;16.83;;;7.87;;
15655;SDS011;7928;43.614;1.456;2022-10-31T02:32:27;14.97;;;7.73;;
15655;SDS011;7928;43.614;1.456;2022-10-31T02:34:59;19.87;;;7.97;;
15655;SDS011;7928;43.614;1.456;2022-10-31T02:37:36;14.17;;;8.30;;
15655;SDS011;7928;43.614;1.456;2022-10-31T02:40:10;18.43;;;8.63;;
15655;SDS011;7928;43.614;1.456;2022-10-31T02:42:44;18.93;;;8.37;;
15655;SDS011;7928;43.614;1.456;2022-10-31T02:45:20;16.57;;;7.57;;
15655;SDS011;7928;43.614;1.456;2022-10-31T02:47:53;14.80;;;7.70;;
15655;SDS011;7928;43.614;1.456;2022-10-31T02:50:25;16.20;;;8.73;;
15655;SDS011;7928;43.614;1.456;2022-10-31T02:52:56;15.97;;;7.73;;
15655;SDS011;7928;43.614;1.456;2022-10-31T02:58:12;17.77;;;7.90;;
15655;SDS011;7928;43.614;1.456;2022-10-31T03:00:44;20.47;;;8.30;;
15655;SDS011;7928;43.614;1.456;2022-10-31T03:03:39;16.93;;;8.40;;
15655;SDS011;7928;43.614;1.456;2022-10-31T03:06:19;19.73;;;8.07;;
15655;SDS011;7928;43.614;1.456;2022-10-31T03:08:54;12.27;;;7.43;;
15655;SDS011;7928;43.614;1.456;2022-10-31T03:11:28;19.67;;;8.50;;
15655;SDS011;7928;43.614;1.456;2022-10-31T03:14:00;13.40;;;7.83;;
15655;SDS011;7928;43.614;1.456;2022-10-31T03:16:37;18.43;;;7.27;;
15655;SDS011;7928;43.614;1.456;2022-10-31T03:19:10;19.93;;;7.87;;
15655;SDS011;7928;43.614;1.456;2022-10-31T03:21:42;17.13;;;8.20;;
15655;SDS011;7928;43.614;1.456;2022-10-31T03:24:13;14.80;;;7.53;;
15655;SDS011;7928;43.614;1.456;2022-10-31T03:26:43;15.60;;;7.90;;
15655;SDS011;7928;43.614;1.456;2022-10-31T03:29:14;18.13;;;8.63;;
15655;SDS011;7928;43.614;1.456;2022-10-31T03:31:46;13.03;;;7.27;;
15655;SDS011;7928;43.614;1.456;2022-10-31T03:34:17;16.20;;;8.67;;
15655;SDS011;7928;43.614;1.456;2022-10-31T03:36:46;20.87;;;8.60;;
15655;SDS011;7928;43.614;1.456;2022-10-31T03:39:19;19.33;;;8.00;;
15655;SDS011;7928;43.614;1.456;2022-10-31T03:41:49;17.10;;;7.40;;
15655;SDS011;7928;43.614;1.456;2022-10-31T03:44:22;18.50;;;8.43;;
15655;SDS011;7928;43.614;1.456;2022-10-31T03:46:53;23.53;;;7.47;;
15655;SDS011;7928;43.614;1.456;2022-10-31T03:49:22;14.70;;;7.30;;
15655;SDS011;7928;43.614;1.456;2022-10-31T03:51:51;20.37;;;9.17;;
15655;SDS011;7928;43.614;1.456;2022-10-31T03:54:23;16.00;;;7.97;;
15655;SDS011;7928;43.614;1.456;2022-10-31T03:56:56;15.73;;;8.00;;
15655;SDS011;7928;43.614;1.456;2022-10-31T03:59:29;19.30;;;8.60;;
15655;SDS011;7928;43.614;1.456;2022-10-31T04:02:00;16.40;;;8.00;;
15655;SDS011;7928;43.614;1.456;2022-10-31T04:04:33;22.03;;;8.27;;
15655;SDS011;7928;43.614;1.456;2022-10-31T04:07:02;19.70;;;8.83;;
15655;SDS011;7928;43.614;1.456;2022-10-31T04:09:31;13.73;;;7.80;;
15655;SDS011;7928;43.614;1.456;2022-10-31T04:12:01;18.03;;;8.00;;
15655;SDS011;7928;43.614;1.456;2022-10-31T04:14:31;21.13;;;7.73;;
15655;SDS011;7928;43.614;1.456;2022-10-31T04:17:01;16.63;;;7.67;;
15655;SDS011;7928;43.614;1.456;2022-10-31T04:19:33;18.73;;;8.50;;
15655;SDS011;7928;43.614;1.456;2022-10-31T04:22:01;22.00;;;8.90;;
15655;SDS011;7928;43.614;1.456;2022-10-31T04:24:28;13.07;;;7.90;;
15655;SDS011;7928;43.614;1.456;2022-10-31T04:26:55;22.77;;;8.57;;
15655;SDS011;7928;43.614;1.456;2022-10-31T04:29:22;17.40;;;7.97;;
15655;SDS011;7928;43.614;1.456;2022-10-31T04:31:49;24.73;;;8.97;;
15655;SDS011;7928;43.614;1.456;2022-10-31T04:34:16;14.73;;;8.17;;
15655;SDS011;7928;43.614;1.456;2022-10-31T04:36:45;20.00;;;8.40;;
15655;SDS011;7928;43.614;1.456;2022-10-31T04:39:13;19.00;;;9.10;;
15655;SDS011;7928;43.614;1.456;2022-10-31T04:41:40;20.07;;;10.13;;
15655;SDS011;7928;43.614;1.456;2022-10-31T04:44:07;16.70;;;8.73;;
15655;SDS011;7928;43.614;1.456;2022-10-31T04:46:34;16.50;;;8.03;;
15655;SDS011;7928;43.614;1.456;2022-10-31T04:49:01;21.63;;;8.97;;
15655;SDS011;7928;43.614;1.456;2022-10-31T04:51:28;16.53;;;7.80;;
15655;SDS011;7928;43.614;1.456;2022-10-31T04:53:57;15.33;;;8.57;;
15655;SDS011;7928;43.614;1.456;2022-10-31T04:56:24;20.23;;;9.17;;
15655;SDS011;7928;43.614;1.456;2022-10-31T04:58:51;19.67;;;9.73;;
15655;SDS011;7928;43.614;1.456;2022-10-31T05:01:19;17.10;;;8.10;;
15655;SDS011;7928;43.614;1.456;2022-10-31T05:03:46;15.60;;;8.50;;
15655;SDS011;7928;43.614;1.456;2022-10-31T05:06:13;11.37;;;7.27;;
15655;SDS011;7928;43.614;1.456;2022-10-31T05:08:41;17.83;;;9.43;;
15655;SDS011;7928;43.614;1.456;2022-10-31T05:11:10;16.03;;;8.53;;
15655;SDS011;7928;43.614;1.456;2022-10-31T05:13:37;23.43;;;8.20;;
15655;SDS011;7928;43.614;1.456;2022-10-31T05:16:04;13.73;;;7.60;;
15655;SDS011;7928;43.614;1.456;2022-10-31T05:18:32;16.10;;;8.43;;
15655;SDS011;7928;43.614;1.456;2022-10-31T05:20:59;16.77;;;8.43;;
15655;SDS011;7928;43.614;1.456;2022-10-31T05:23:26;15.37;;;7.83;;
15655;SDS011;7928;43.614;1.456;2022-10-31T05:25:53;14.57;;;8.33;;
15655;SDS011;7928;43.614;1.456;2022-10-31T05:28:22;13.03;;;7.73;;
15655;SDS011;7928;43.614;1.456;2022-10-31T05:30:49;15.60;;;7.87;;
15655;SDS011;7928;43.614;1.456;2022-10-31T05:33:16;16.70;;;7.90;;
15655;SDS011;7928;43.614;1.456;2022-10-31T05:35:43;19.20;;;8.30;;
15655;SDS011;7928;43.614;1.456;2022-10-31T05:38:10;11.97;;;6.77;;
15655;SDS011;7928;43.614;1.456;2022-10-31T05:40:37;11.77;;;7.27;;
15655;SDS011;7928;43.614;1.456;2022-10-31T05:43:04;13.47;;;8.10;;
15655;SDS011;7928;43.614;1.456;2022-10-31T05:45:33;13.47;;;7.20;;
15655;SDS011;7928;43.614;1.456;2022-10-31T05:48:00;13.73;;;6.93;;
15655;SDS011;7928;43.614;1.456;2022-10-31T05:50:29;12.53;;;7.67;;
15655;SDS011;7928;43.614;1.456;2022-10-31T05:52:57;14.13;;;6.23;;
15655;SDS011;7928;43.614;1.456;2022-10-31T05:55:25;13.70;;;6.90;;
15655;SDS011;7928;43.614;1.456;2022-10-31T05:57:53;15.03;;;7.70;;
15655;SDS011;7928;43.614;1.456;2022-10-31T06:00:21;10.20;;;6.90;;
15655;SDS011;7928;43.614;1.456;2022-10-31T06:02:53;17.30;;;6.93;;
15655;SDS011;7928;43.614;1.456;2022-10-31T06:05:24;15.37;;;7.40;;
15655;SDS011;7928;43.614;1.456;2022-10-31T06:07:51;14.57;;;7.93;;
15655;SDS011;7928;43.614;1.456;2022-10-31T06:10:18;12.70;;;6.53;;
15655;SDS011;7928;43.614;1.456;2022-10-31T06:12:46;13.20;;;7.03;;
15655;SDS011;7928;43.614;1.456;2022-10-31T06:15:13;16.50;;;7.87;;
15655;SDS011;7928;43.614;1.456;2022-10-31T06:17:40;15.87;;;7.50;;
15655;SDS011;7928;43.614;1.456;2022-10-31T06:20:09;15.83;;;7.10;;
15655;SDS011;7928;43.614;1.456;2022-10-31T06:22:37;16.60;;;6.97;;
15655;SDS011;7928;43.614;1.456;2022-10-31T06:25:04;15.10;;;6.97;;
15655;SDS011;7928;43.614;1.456;2022-10-31T06:27:31;12.77;;;6.80;;
15655;SDS011;7928;43.614;1.456;2022-10-31T06:29:58;18.17;;;7.40;;
15655;SDS011;7928;43.614;1.456;2022-10-31T06:32:25;20.10;;;7.30;;
15655;SDS011;7928;43.614;1.456;2022-10-31T06:34:52;12.53;;;7.33;;
15655;SDS011;7928;43.614;1.456;2022-10-31T06:37:21;15.77;;;6.97;;
15655;SDS011;7928;43.614;1.456;2022-10-31T06:39:48;11.47;;;6.80;;
15655;SDS011;7928;43.614;1.456;2022-10-31T06:42:15;11.57;;;6.83;;
15655;SDS011;7928;43.614;1.456;2022-10-31T06:44:43;14.87;;;7.20;;
15655;SDS011;7928;43.614;1.456;2022-10-31T06:47:10;15.27;;;8.47;;
15655;SDS011;7928;43.614;1.456;2022-10-31T06:49:37;14.87;;;6.70;;
15655;SDS011;7928;43.614;1.456;2022-10-31T06:52:04;26.23;;;14.33;;
15655;SDS011;7928;43.614;1.456;2022-10-31T06:54:33;16.63;;;9.87;;
15655;SDS011;7928;43.614;1.456;2022-10-31T06:57:00;15.90;;;7.53;;
15655;SDS011;7928;43.614;1.456;2022-10-31T06:59:27;30.37;;;21.10;;
15655;SDS011;7928;43.614;1.456;2022-10-31T07:01:54;15.30;;;7.83;;
15655;SDS011;7928;43.614;1.456;2022-10-31T07:04:21;14.07;;;7.33;;
15655;SDS011;7928;43.614;1.456;2022-10-31T07:06:50;13.77;;;7.93;;
15655;SDS011;7928;43.614;1.456;2022-10-31T07:09:17;16.97;;;8.20;;
15655;SDS011;7928;43.614;1.456;2022-10-31T07:11:46;16.30;;;8.07;;
15655;SDS011;7928;43.614;1.456;2022-10-31T07:14:13;16.30;;;9.77;;
15655;SDS011;7928;43.614;1.456;2022-10-31T07:16:40;19.43;;;8.43;;
15655;SDS011;7928;43.614;1.456;2022-10-31T07:19:07;14.50;;;7.17;;
15655;SDS011;7928;43.614;1.456;2022-10-31T07:21:34;18.13;;;8.53;;
15655;SDS011;7928;43.614;1.456;2022-10-31T07:24:01;14.77;;;6.93;;
15655;SDS011;7928;43.614;1.456;2022-10-31T07:26:29;15.20;;;7.53;;
15655;SDS011;7928;43.614;1.456;2022-10-31T07:28:57;14.77;;;7.57;;
15655;SDS011;7928;43.614;1.456;2022-10-31T07:31:25;18.03;;;8.07;;
15655;SDS011;7928;43.614;1.456;2022-10-31T07:33:52;15.00;;;7.20;;
15655;SDS011;7928;43.614;1.456;2022-10-31T07:36:19;14.13;;;7.20;;
15655;SDS011;7928;43.614;1.456;2022-10-31T07:38:46;15.50;;;6.60;;
15655;SDS011;7928;43.614;1.456;2022-10-31T07:41:13;17.07;;;7.00;;
15655;SDS011;7928;43.614;1.456;2022-10-31T07:43:40;11.87;;;7.87;;
15655;SDS011;7928;43.614;1.456;2022-10-31T07:46:08;23.17;;;7.57;;
15655;SDS011;7928;43.614;1.456;2022-10-31T07:48:36;13.10;;;7.60;;
15655;SDS011;7928;43.614;1.456;2022-10-31T07:51:03;19.77;;;8.17;;
15655;SDS011;7928;43.614;1.456;2022-10-31T07:53:32;14.83;;;7.67;;
15655;SDS011;7928;43.614;1.456;2022-10-31T07:55:59;16.07;;;7.50;;
15655;SDS011;7928;43.614;1.456;2022-10-31T07:58:25;14.53;;;7.57;;
15655;SDS011;7928;43.614;1.456;2022-10-31T08:00:52;16.50;;;7.90;;
15655;SDS011;7928;43.614;1.456;2022-10-31T08:03:21;17.53;;;7.97;;
15655;SDS011;7928;43.614;1.456;2022-10-31T08:05:48;12.00;;;7.33;;
15655;SDS011;7928;43.614;1.456;2022-10-31T08:08:15;21.70;;;8.17;;
15655;SDS011;7928;43.614;1.456;2022-10-31T08:10:42;18.33;;;8.20;;
15655;SDS011;7928;43.614;1.456;2022-10-31T08:13:10;17.43;;;8.37;;
15655;SDS011;7928;43.614;1.456;2022-10-31T08:15:38;20.30;;;8.03;;
15655;SDS011;7928;43.614;1.456;2022-10-31T08:18:07;20.57;;;8.40;;
15655;SDS011;7928;43.614;1.456;2022-10-31T08:20:39;14.53;;;7.43;;
15655;SDS011;7928;43.614;1.456;2022-10-31T08:23:07;17.50;;;7.53;;
15655;SDS011;7928;43.614;1.456;2022-10-31T08:25:35;14.97;;;6.70;;
15655;SDS011;7928;43.614;1.456;2022-10-31T08:28:03;19.87;;;7.23;;
15655;SDS011;7928;43.614;1.456;2022-10-31T08:30:32;14.80;;;6.67;;
15655;SDS011;7928;43.614;1.456;2022-10-31T08:33:01;14.27;;;7.23;;
15655;SDS011;7928;43.614;1.456;2022-10-31T08:35:29;11.23;;;6.30;;
15655;SDS011;7928;43.614;1.456;2022-10-31T08:37:58;12.73;;;6.27;;
15655;SDS011;7928;43.614;1.456;2022-10-31T08:40:26;16.03;;;7.13;;
15655;SDS011;7928;43.614;1.456;2022-10-31T08:42:57;14.70;;;6.47;;
15655;SDS011;7928;43.614;1.456;2022-10-31T08:45:25;15.17;;;6.37;;
15655;SDS011;7928;43.614;1.456;2022-10-31T08:47:56;17.47;;;6.00;;
15655;SDS011;7928;43.614;1.456;2022-10-31T08:50:24;12.60;;;7.50;;
15655;SDS011;7928;43.614;1.456;2022-10-31T08:52:51;16.47;;;6.23;;
15655;SDS011;7928;43.614;1.456;2022-10-31T08:55:20;14.30;;;6.37;;
15655;SDS011;7928;43.614;1.456;2022-10-31T08:57:47;16.47;;;5.80;;
15655;SDS011;7928;43.614;1.456;2022-10-31T09:00:14;13.30;;;5.33;;
15655;SDS011;7928;43.614;1.456;2022-10-31T09:02:41;15.97;;;6.07;;
15655;SDS011;7928;43.614;1.456;2022-10-31T09:05:08;14.47;;;6.20;;
15655;SDS011;7928;43.614;1.456;2022-10-31T09:07:35;13.90;;;5.40;;
15655;SDS011;7928;43.614;1.456;2022-10-31T09:10:02;13.67;;;5.40;;
15655;SDS011;7928;43.614;1.456;2022-10-31T09:12:31;11.60;;;5.83;;
15655;SDS011;7928;43.614;1.456;2022-10-31T09:14:58;19.97;;;5.90;;
15655;SDS011;7928;43.614;1.456;2022-10-31T09:17:27;12.57;;;5.53;;
15655;SDS011;7928;43.614;1.456;2022-10-31T09:19:54;14.23;;;5.30;;
15655;SDS011;7928;43.614;1.456;2022-10-31T09:22:22;16.00;;;5.40;;
15655;SDS011;7928;43.614;1.456;2022-10-31T09:24:49;16.77;;;5.63;;
15655;SDS011;7928;43.614;1.456;2022-10-31T09:27:16;14.07;;;5.40;;
15655;SDS011;7928;43.614;1.456;2022-10-31T09:29:44;13.37;;;4.63;;
15655;SDS011;7928;43.614;1.456;2022-10-31T09:32:12;15.23;;;5.50;;
15655;SDS011;7928;43.614;1.456;2022-10-31T09:34:39;16.67;;;5.27;;
15655;SDS011;7928;43.614;1.456;2022-10-31T09:37:06;15.47;;;5.53;;
15655;SDS011;7928;43.614;1.456;2022-10-31T09:39:33;16.53;;;5.30;;
15655;SDS011;7928;43.614;1.456;2022-10-31T09:42:06;12.90;;;4.70;;
15655;SDS011;7928;43.614;1.456;2022-10-31T09:44:47;13.43;;;4.53;;
15655;SDS011;7928;43.614;1.456;2022-10-31T09:47:22;12.97;;;4.53;;
15655;SDS011;7928;43.614;1.456;2022-10-31T09:50:00;16.20;;;5.33;;
15655;SDS011;7928;43.614;1.456;2022-10-31T09:52:36;11.70;;;4.60;;
15655;SDS011;7928;43.614;1.456;2022-10-31T09:55:08;11.48;;;4.82;;
15655;SDS011;7928;43.614;1.456;2022-10-31T09:57:42;11.68;;;4.85;;
15655;SDS011;7928;43.614;1.456;2022-10-31T10:00:15;15.25;;;5.30;;
15655;SDS011;7928;43.614;1.456;2022-10-31T10:02:47;13.82;;;4.93;;
15655;SDS011;7928;43.614;1.456;2022-10-31T10:05:18;13.70;;;4.35;;
15655;SDS011;7928;43.614;1.456;2022-10-31T10:07:53;12.90;;;4.30;;
15655;SDS011;7928;43.614;1.456;2022-10-31T10:10:28;12.75;;;4.38;;
15655;SDS011;7928;43.614;1.456;2022-10-31T10:16:03;13.13;;;4.95;;
15655;SDS011;7928;43.614;1.456;2022-10-31T10:18:41;12.77;;;4.68;;
15655;SDS011;7928;43.614;1.456;2022-10-31T10:21:21;11.38;;;5.20;;
15655;SDS011;7928;43.614;1.456;2022-10-31T10:24:00;13.63;;;4.57;;
15655;SDS011;7928;43.614;1.456;2022-10-31T10:26:49;10.95;;;4.60;;
15655;SDS011;7928;43.614;1.456;2022-10-31T10:29:29;12.00;;;4.25;;
15655;SDS011;7928;43.614;1.456;2022-10-31T10:32:04;10.50;;;4.38;;
15655;SDS011;7928;43.614;1.456;2022-10-31T10:34:42;12.82;;;5.40;;
15655;SDS011;7928;43.614;1.456;2022-10-31T10:37:16;11.52;;;5.13;;
15655;SDS011;7928;43.614;1.456;2022-10-31T10:39:51;12.57;;;4.90;;
15655;SDS011;7928;43.614;1.456;2022-10-31T10:42:23;11.35;;;4.70;;
15655;SDS011;7928;43.614;1.456;2022-10-31T10:45:13;9.98;;;4.75;;
15655;SDS011;7928;43.614;1.456;2022-10-31T10:48:05;11.35;;;4.53;;
15655;SDS011;7928;43.614;1.456;2022-10-31T10:50:38;14.00;;;4.63;;
15655;SDS011;7928;43.614;1.456;2022-10-31T10:53:10;11.45;;;4.55;;
15655;SDS011;7928;43.614;1.456;2022-10-31T10:55:58;16.08;;;4.65;;
15655;SDS011;7928;43.614;1.456;2022-10-31T10:58:29;10.77;;;4.47;;
15655;SDS011;7928;43.614;1.456;2022-10-31T11:00:57;12.82;;;4.72;;
15655;SDS011;7928;43.614;1.456;2022-10-31T11:03:25;12.18;;;4.45;;
15655;SDS011;7928;43.614;1.456;2022-10-31T11:05:53;11.95;;;4.70;;
15655;SDS011;7928;43.614;1.456;2022-10-31T11:08:25;13.77;;;4.97;;
15655;SDS011;7928;43.614;1.456;2022-10-31T11:10:56;9.40;;;4.15;;
15655;SDS011;7928;43.614;1.456;2022-10-31T11:13:25;10.77;;;4.53;;
15655;SDS011;7928;43.614;1.456;2022-10-31T11:15:55;12.23;;;4.70;;
15655;SDS011;7928;43.614;1.456;2022-10-31T11:18:26;12.75;;;4.53;;
15655;SDS011;7928;43.614;1.456;2022-10-31T11:20:56;12.52;;;4.95;;
15655;SDS011;7928;43.614;1.456;2022-10-31T11:23:25;10.55;;;4.30;;
15655;SDS011;7928;43.614;1.456;2022-10-31T11:25:54;14.88;;;5.15;;
15655;SDS011;7928;43.614;1.456;2022-10-31T11:28:22;14.82;;;5.03;;
15655;SDS011;7928;43.614;1.456;2022-10-31T11:30:51;13.30;;;4.20;;
15655;SDS011;7928;43.614;1.456;2022-10-31T11:33:22;10.82;;;4.22;;
15655;SDS011;7928;43.614;1.456;2022-10-31T11:35:55;11.52;;;4.40;;
15655;SDS011;7928;43.614;1.456;2022-10-31T11:38:24;10.15;;;4.13;;
15655;SDS011;7928;43.614;1.456;2022-10-31T11:41:09;10.80;;;4.15;;
15655;SDS011;7928;43.614;1.456;2022-10-31T11:43:38;13.27;;;4.47;;
15655;SDS011;7928;43.614;1.456;2022-10-31T11:46:18;13.60;;;4.43;;
15655;SDS011;7928;43.614;1.456;2022-10-31T11:48:50;12.85;;;4.88;;
15655;SDS011;7928;43.614;1.456;2022-10-31T11:51:20;8.98;;;4.00;;
15655;SDS011;7928;43.614;1.456;2022-10-31T11:53:50;12.95;;;4.20;;
15655;SDS011;7928;43.614;1.456;2022-10-31T11:56:19;11.15;;;4.78;;
15655;SDS011;7928;43.614;1.456;2022-10-31T11:58:54;15.30;;;4.70;;
15655;SDS011;7928;43.614;1.456;2022-10-31T12:01:23;13.75;;;4.68;;
15655;SDS011;7928;43.614;1.456;2022-10-31T12:03:57;15.93;;;4.57;;
15655;SDS011;7928;43.614;1.456;2022-10-31T12:06:31;20.80;;;5.63;;
15655;SDS011;7928;43.614;1.456;2022-10-31T12:09:00;13.65;;;4.68;;
15655;SDS011;7928;43.614;1.456;2022-10-31T12:11:40;14.43;;;4.80;;
15655;SDS011;7928;43.614;1.456;2022-10-31T12:14:18;11.95;;;4.95;;
15655;SDS011;7928;43.614;1.456;2022-10-31T12:16:55;12.13;;;4.28;;
15655;SDS011;7928;43.614;1.456;2022-10-31T12:19:31;15.43;;;4.55;;
15655;SDS011;7928;43.614;1.456;2022-10-31T12:22:08;11.93;;;4.72;;
15655;SDS011;7928;43.614;1.456;2022-10-31T12:24:43;12.57;;;4.70;;
15655;SDS011;7928;43.614;1.456;2022-10-31T12:27:19;13.43;;;3.92;;
15655;SDS011;7928;43.614;1.456;2022-10-31T12:30:06;13.18;;;4.10;;
15655;SDS011;7928;43.614;1.456;2022-10-31T12:32:41;13.23;;;4.95;;
15655;SDS011;7928;43.614;1.456;2022-10-31T12:38:31;12.57;;;4.15;;
15655;SDS011;7928;43.614;1.456;2022-10-31T12:41:13;13.80;;;4.03;;
15655;SDS011;7928;43.614;1.456;2022-10-31T12:44:02;10.05;;;4.00;;
15655;SDS011;7928;43.614;1.456;2022-10-31T12:46:42;11.10;;;4.45;;
15655;SDS011;7928;43.614;1.456;2022-10-31T12:49:25;15.00;;;4.63;;
15655;SDS011;7928;43.614;1.456;2022-10-31T12:52:07;10.40;;;4.55;;
15655;SDS011;7928;43.614;1.456;2022-10-31T12:54:49;11.50;;;4.32;;
15655;SDS011;7928;43.614;1.456;2022-10-31T12:57:27;11.13;;;4.10;;
15655;SDS011;7928;43.614;1.456;2022-10-31T12:59:59;10.18;;;4.13;;
15655;SDS011;7928;43.614;1.456;2022-10-31T13:02:30;13.02;;;4.35;;
15655;SDS011;7928;43.614;1.456;2022-10-31T13:05:04;13.48;;;4.55;;
15655;SDS011;7928;43.614;1.456;2022-10-31T13:07:44;11.27;;;4.35;;
15655;SDS011;7928;43.614;1.456;2022-10-31T13:10:16;10.57;;;4.75;;
15655;SDS011;7928;43.614;1.456;2022-10-31T13:12:46;12.18;;;4.50;;
15655;SDS011;7928;43.614;1.456;2022-10-31T13:15:16;9.48;;;4.38;;
15655;SDS011;7928;43.614;1.456;2022-10-31T13:17:46;14.10;;;4.82;;
15655;SDS011;7928;43.614;1.456;2022-10-31T13:20:18;11.00;;;4.07;;
15655;SDS011;7928;43.614;1.456;2022-10-31T13:22:52;13.05;;;5.05;;
15655;SDS011;7928;43.614;1.456;2022-10-31T13:25:23;11.50;;;4.40;;
15655;SDS011;7928;43.614;1.456;2022-10-31T13:27:55;11.77;;;4.65;;
15655;SDS011;7928;43.614;1.456;2022-10-31T13:30:26;10.77;;;3.85;;
15655;SDS011;7928;43.614;1.456;2022-10-31T13:32:58;12.65;;;4.50;;
15655;SDS011;7928;43.614;1.456;2022-10-31T13:35:29;15.90;;;4.88;;
15655;SDS011;7928;43.614;1.456;2022-10-31T13:38:08;9.02;;;4.30;;
15655;SDS011;7928;43.614;1.456;2022-10-31T13:40:42;15.68;;;4.63;;
15655;SDS011;7928;43.614;1.456;2022-10-31T13:43:18;11.73;;;4.68;;
15655;SDS011;7928;43.614;1.456;2022-10-31T13:45:53;12.90;;;4.00;;
15655;SDS011;7928;43.614;1.456;2022-10-31T13:48:34;11.25;;;4.05;;
15655;SDS011;7928;43.614;1.456;2022-10-31T13:51:05;16.33;;;5.15;;
15655;SDS011;7928;43.614;1.456;2022-10-31T13:53:41;13.00;;;4.65;;
15655;SDS011;7928;43.614;1.456;2022-10-31T13:56:14;11.10;;;4.70;;
15655;SDS011;7928;43.614;1.456;2022-10-31T13:58:54;13.48;;;4.22;;
15655;SDS011;7928;43.614;1.456;2022-10-31T14:01:31;14.85;;;4.97;;
15655;SDS011;7928;43.614;1.456;2022-10-31T14:04:00;12.85;;;4.20;;
15655;SDS011;7928;43.614;1.456;2022-10-31T14:06:41;13.52;;;4.93;;
15655;SDS011;7928;43.614;1.456;2022-10-31T14:09:24;11.02;;;5.00;;
15655;SDS011;7928;43.614;1.456;2022-10-31T14:11:57;9.82;;;4.53;;
15655;SDS011;7928;43.614;1.456;2022-10-31T14:14:30;13.18;;;4.75;;
15655;SDS011;7928;43.614;1.456;2022-10-31T14:17:00;10.23;;;4.30;;
15655;SDS011;7928;43.614;1.456;2022-10-31T14:19:28;9.98;;;4.55;;
15655;SDS011;7928;43.614;1.456;2022-10-31T14:21:55;14.93;;;5.50;;
15655;SDS011;7928;43.614;1.456;2022-10-31T14:24:36;21.02;;;4.97;;
15655;SDS011;7928;43.614;1.456;2022-10-31T14:27:05;12.77;;;4.63;;
15655;SDS011;7928;43.614;1.456;2022-10-31T14:30:16;13.30;;;5.07;;
15655;SDS011;7928;43.614;1.456;2022-10-31T14:32:49;11.55;;;5.20;;
15655;SDS011;7928;43.614;1.456;2022-10-31T14:35:18;15.10;;;5.63;;
15655;SDS011;7928;43.614;1.456;2022-10-31T14:37:54;7.93;;;4.88;;
15655;SDS011;7928;43.614;1.456;2022-10-31T14:40:42;12.60;;;5.18;;
15655;SDS011;7928;43.614;1.456;2022-10-31T14:43:28;13.10;;;5.00;;
15655;SDS011;7928;43.614;1.456;2022-10-31T14:46:06;14.15;;;5.15;;
15655;SDS011;7928;43.614;1.456;2022-10-31T14:51:35;11.30;;;4.68;;
15655;SDS011;7928;43.614;1.456;2022-10-31T14:54:05;14.20;;;4.75;;
15655;SDS011;7928;43.614;1.456;2022-10-31T14:56:39;13.90;;;5.20;;
15655;SDS011;7928;43.614;1.456;2022-10-31T14:59:16;14.63;;;5.93;;
15655;SDS011;7928;43.614;1.456;2022-10-31T15:01:51;19.65;;;4.95;;
15655;SDS011;7928;43.614;1.456;2022-10-31T15:04:23;12.40;;;4.93;;
15655;SDS011;7928;43.614;1.456;2022-10-31T15:06:52;13.30;;;5.00;;
15655;SDS011;7928;43.614;1.456;2022-10-31T15:09:25;17.15;;;5.40;;
15655;SDS011;7928;43.614;1.456;2022-10-31T15:11:55;12.05;;;4.63;;
15655;SDS011;7928;43.614;1.456;2022-10-31T15:14:24;12.80;;;4.70;;
15655;SDS011;7928;43.614;1.456;2022-10-31T15:16:52;15.80;;;5.38;;
15655;SDS011;7928;43.614;1.456;2022-10-31T15:19:21;12.25;;;5.40;;
15655;SDS011;7928;43.614;1.456;2022-10-31T15:21:51;14.95;;;5.07;;
15655;SDS011;7928;43.614;1.456;2022-10-31T15:24:19;14.88;;;5.32;;
15655;SDS011;7928;43.614;1.456;2022-10-31T15:26:47;13.13;;;5.20;;
15655;SDS011;7928;43.614;1.456;2022-10-31T15:29:18;12.67;;;5.03;;